« 趣味的航空路誌改訂情報 2014/11/13 thu | トップページ | 平成26年度緊急消防援助隊中部ブロック合同訓練 能登空港 2014/11/15 sat »

2014/11/14

民航 小松飛行場 2014/11/10 mon

飴ちゃんが後ろで賑やかな小松飛行場。当日の民航機の動きを。

RJNK 092200Z 09003KT 8000 MIFG FEW010 SCT030 BKN045 11/11 Q1020

20141110_rjnk_00ja658j

JAL1270 RJNK-RJTT JA658J B767-346ER

20141110_rjnk_01ja658j

RJNK 092300Z 06003KT 9999 FEW010 13/11 Q1021

20141110_rjnk_02ja714a

ANA752 RJNK-RJTT JA714A B777-281

20141110_rjnk_03ja05rj

20141110_rjnk_04ja05rj

IBX62 RJNK-RJSS JA05RJ CRJ-702

20141110_rjnk_05ja11an

ADO125 RJNK-RJCC JA11AN B737-781

20141110_rjnk_06ja841a

ANA1232 RJFF-RJNK JA841A DHC-8-402Q

20141110_rjnk_07ja659j

JAL1273 RJTT-RJNK JA659J B767-346ER

20141110_rjnk_08ja604a

ANA751 RJTT-RJNK JA604A B767-381ER

20141110_rjnk_09ja841a

ANA1231 RJNK-RJFF JA841A DHC-8-402Q

20141110_rjnk_10ja659j

JAL1242 RJNK-RJTT JA659J B767-346ER

RJNK 100100Z 04013KT 9999 FEW030 16/09 Q1021

20141110_rjnk_11ja604a

20141110_rjnk_12ja604a_2

ANA754 RJNK-RJTT JA604A B767-381ER

20141110_rjnk_13hl8249

KAL775 RKSI-RJNK HL8249 737-9B5ER

20141110_rjnk_14ja8569

ANA753 RJTT-RJNK JA8569 B767-381

20141110_rjnk_15ja05rj

IBX61 RJSS-RJNK JA05RJ CRJ-702

20141110_rjnk_16ja658j

JAL1275 RJTT-RJNK JA658J B767-346ER

20141110_rjnk_17ja893f

JA893F B412 石川県消防防災

消火用タンクを装備している。

20141110_rjnk_18ja05rj

IBX89 RJNK-RJFF JA05RJ CRJ-702

20141110_rjnk_19ja658j

JAL1276 RJNK-RJTT JA658J B767-346ER

20141110_rjnk_20ja8569

20141110_rjnk_21ja8569

ANA756 RJNK-RJTT JA8569 B767-381

20141110_rjnk_22hl8249

KAL776 RJNK-RKSI HL8249 B737-9B5ER

20141110_rjnk_23b6713

CSE557 ZSPD-RJNK B-6713 A320-232

RJNK 100400Z 02012KT 9999 FEW030 SCT230 17/08 Q1019

20141110_rjnk_24ja8938

JTA36 ROAH-RJNK JA8938 B737-4Q3

20141110_rjnk_25b6713

CSE558 RJNK-ZSPD B-6713 A320-232

20141110_rjnk_26ja893f

JA893F

消火タンクを外して、出動

20141110_rjnk_27ja68an

ANA1091 RJTT-RJNK JA68AN B737-881

20141110_rjnk_28ja10rj

IBX90 RJFF-RJNK JA10RJ CRJ-702

20141110_rjnk_29ja8364

20141110_rjnk_30ja8364

JAL1279 RJTT-RJNK JA8364 B767-346

20141110_rjnk_31ja8938

20141110_rjnk_32ja8938

JTA37 RJNK-ROAH JA8938 B737-4Q3

20141110_rjnk_33ja10rj

IBX18 RJNK-RJAA JA10RJ CRJ-702

20141110_rjnk_34ja8364

RJNK 100600Z 01014KT 9999 FEW030 BKN230 16/05 Q1018

20141110_rjnk_35ja8364

JAL1278 RJNK-RJTT JA8364 B767-346

20141110_rjnk_36ja893f

JA893F

20141110_rjnk_37ja68an

ANA1092 RJNK-RJTT JA68AN B737-881

20141110_rjnk_38ja841a

ANA1236 RJFF-RJNK JA841A DHC-8-402Q

20141110_rjnk_39ja711a

20141110_rjnk_40ja711a

ANA755 RJTT-RJNK JA711A B777-281

JAL      /1270 JA658J
JAL1273/1272 JA659J
JAL1275/1276 JA658J
JAL1279/1278 JA8364
JAL1281/1280 JA655J
JAL1283/1282
JAL1285/        JA655J

ANA     /752 JA714A
ANA751/754 JA604A
ANA753/756 JA8569
ANA1091/1092 JA68AN
ANA755/758 JA711A
ANA757/760 JA809A
ANA759/      JA702A

ANA1232/1231 JA841A
ANA1236/1235 JA841A

ADO     /125  JA11AN
ADO124/       JA07AN

IBX   /62 JA05RJ
IBX61/89 JA05RJ
IBX90/18 JA10RJ
IBX64/63 JA09RJ
IBX19/    JA08RJ

JTA36/37 JA8938

KAL775/776 HL8249

CSE557/558 B-6713

EVA158/157 B-16208

|

« 趣味的航空路誌改訂情報 2014/11/13 thu | トップページ | 平成26年度緊急消防援助隊中部ブロック合同訓練 能登空港 2014/11/15 sat »

小松飛行場」カテゴリの記事

コメント

コメントを書く



(ウェブ上には掲載しません)


コメントは記事投稿者が公開するまで表示されません。



トラックバック


この記事へのトラックバック一覧です: 民航 小松飛行場 2014/11/10 mon:

« 趣味的航空路誌改訂情報 2014/11/13 thu | トップページ | 平成26年度緊急消防援助隊中部ブロック合同訓練 能登空港 2014/11/15 sat »